Date,TemperatureHighF,TemperatureAvgF,TemperatureLowF,DewpointHighF,DewpointAvgF,DewpointLowF,HumidityHigh,HumidityAvg,HumidityLow,PressureMaxIn,PressureMinIn,WindSpeedMaxMPH,WindSpeedAvgMPH,GustSpeedMaxMPH,PrecipitationSumIn
2013-10-1,83.0,64.1,51.8,67.0,58.5,50.7,96,84,50,30.10,30.00,8,0,8,0.00
2013-10-2,83.3,66.7,55.8,66.4,60.4,54.7,96,83,49,30.11,30.02,5,0,5,0.00
2013-10-3,84.7,69.8,57.4,70.5,63.3,56.3,96,82,50,30.11,30.03,4,0,4,0.00
2013-10-4,86.3,69.8,58.8,70.8,64.2,57.7,96,84,50,30.11,30.02,6,0,6,0.00
2013-10-5,89.7,71.0,59.9,71.9,65.4,58.8,96,85,49,30.09,30.00,5,0,5,0.00
2013-10-6,83.5,70.5,59.1,71.4,66.4,58.0,96,88,64,30.04,29.90,6,0,6,0.00
2013-10-7,72.4,69.3,62.5,70.2,67.7,57.2,96,95,82,29.98,29.81,9,0,9,2.06
2013-10-8,62.8,59.0,56.3,57.1,51.8,48.3,87,77,68,30.19,29.97,7,1,7,0.00
2013-10-9,63.5,57.3,53.4,56.7,53.0,50.0,96,86,78,30.18,30.08,9,1,9,0.20
2013-10-10,59.9,56.0,52.4,58.8,54.9,51.3,96,96,96,30.08,29.92,10,1,10,0.86
2013-10-11,66.4,61.6,58.4,64.7,59.9,57.1,96,94,88,29.95,29.90,5,0,5,0.03
2013-10-12,67.5,62.9,60.3,65.4,61.7,59.2,96,96,92,30.07,29.93,4,0,4,0.01
2013-10-13,65.5,62.4,60.4,63.7,61.2,59.3,96,96,94,30.19,30.06,6,0,6,0.08
2013-10-14,63.7,60.5,55.8,61.8,59.2,55.0,97,95,92,30.23,30.16,6,0,6,0.04
2013-10-15,72.3,60.8,51.7,63.1,57.1,50.9,97,88,67,30.19,30.04,6,0,6,0.01
2013-10-16,70.4,63.8,59.1,64.2,61.3,58.0,96,92,79,30.05,29.93,0,0,0,0.00
2013-10-17,72.8,65.6,59.9,66.6,62.7,58.7,96,91,74,29.95,29.81,5,0,5,0.01
2013-10-18,70.5,60.7,52.5,64.8,54.4,47.8,96,81,52,30.02,29.85,6,0,6,0.00
2013-10-19,68.0,59.9,54.8,64.6,58.3,53.6,96,94,87,29.97,29.79,3,0,3,0.01
2013-10-20,65.0,52.3,41.6,56.6,46.3,40.5,97,82,47,30.11,29.88,5,0,5,0.01
2013-10-21,68.9,50.0,37.3,54.1,45.2,36.5,97,86,49,30.16,29.99,4,0,4,0.00
2013-10-22,66.6,57.7,49.9,60.0,54.8,48.8,96,90,71,29.99,29.78,2,0,2,0.00
2013-10-23,66.4,56.9,45.4,57.4,47.8,34.9,96,75,38,29.98,29.67,11,1,11,0.01
2013-10-24,57.4,45.1,34.9,40.8,35.8,32.3,93,72,44,30.17,29.98,8,1,8,0.00
2013-10-25,53.7,43.7,35.2,37.4,33.5,28.7,93,69,39,30.35,30.17,9,1,9,0.00
2013-10-26,58.8,42.3,28.4,40.0,33.0,26.9,96,73,39,30.35,30.05,9,1,9,0.00
2013-10-27,67.1,51.9,42.2,47.6,41.6,38.0,94,71,39,30.11,30.03,6,0,6,0.00
2013-10-28,68.5,54.0,41.8,54.7,48.6,40.8,97,84,52,30.25,30.10,3,0,3,0.00
2013-10-29,72.0,58.1,50.9,59.6,54.0,49.8,96,87,60,30.32,30.23,3,0,3,0.00
2013-10-30,73.5,58.7,50.9,61.6,55.2,49.8,97,89,65,30.27,30.14,5,0,5,0.00
2013-10-31,72.2,62.4,53.2,63.0,57.7,52.1,96,86,66,30.18,29.88,9,0,9,0.00